Time;durP1;ratioP1;P1;durP2;ratioP2;P2;SDS_P1;SDS_P2;PMS_P1;PMS_P2;Temp;Humidity;BMP_temperature;BMP_pressure;BME280_temperature;BME280_humidity;BME280_pressure;Samples;Min_cycle;Max_cycle;Signal;HPM_P1;HPM_P2
2024/04/07 00:02:14;;;;;;;4.40;1.17;;;;;;;;;;5110311;28;20039;-52
2024/04/07 00:04:39;;;;;;;3.65;1.00;;;;;;;;;;5110432;28;20024;-49
2024/04/07 00:07:05;;;;;;;3.40;1.08;;;;;;;;;;5110221;28;20041;-50
2024/04/07 00:09:30;;;;;;;3.30;0.98;;;;;;;;;;5110687;28;20062;-51
2024/04/07 00:11:55;;;;;;;5.18;1.08;;;;;;;;;;5110569;28;20031;-49
2024/04/07 00:14:21;;;;;;;3.60;1.15;;;;;;;;;;5107229;28;20455;-51
2024/04/07 00:16:47;;;;;;;3.50;0.80;;;;;;;;;;5110638;28;20085;-49
2024/04/07 00:19:12;;;;;;;4.95;1.30;;;;;;;;;;5110206;28;20107;-49
2024/04/07 00:21:37;;;;;;;2.85;0.77;;;;;;;;;;5109959;28;20070;-50
2024/04/07 00:24:03;;;;;;;3.40;0.88;;;;;;;;;;5110612;28;20039;-48
2024/04/07 00:26:28;;;;;;;3.78;0.90;;;;;;;;;;5113653;28;20031;-50
2024/04/07 00:28:54;;;;;;;4.05;1.05;;;;;;;;;;5114405;28;20054;-52
2024/04/07 00:31:19;;;;;;;3.90;1.25;;;;;;;;;;5114098;28;20050;-49
2024/04/07 00:33:44;;;;;;;3.97;0.95;;;;;;;;;;5114592;28;20222;-53
2024/04/07 00:36:09;;;;;;;2.50;0.93;;;;;;;;;;5114415;28;20051;-52
2024/04/07 00:38:35;;;;;;;5.63;0.93;;;;;;;;;;5114126;28;20038;-48
2024/04/07 00:41:01;;;;;;;1.65;0.65;;;;;;;;;;5112954;28;20060;-52
2024/04/07 00:43:27;;;;;;;3.15;1.00;;;;;;;;;;5114343;28;20035;-52
2024/04/07 00:45:56;;;;;;;3.85;0.90;;;;;;;;;;5113990;28;20113;-52
2024/04/07 00:48:22;;;;;;;2.83;0.90;;;;;;;;;;5114243;28;20063;-51
2024/04/07 00:50:49;;;;;;;2.40;0.93;;;;;;;;;;5112812;28;20082;-50
2024/04/07 00:53:15;;;;;;;2.00;0.73;;;;;;;;;;5113728;28;20044;-55
2024/04/07 00:55:41;;;;;;;1.25;0.60;;;;;;;;;;5112922;28;20027;-50
2024/04/07 00:58:11;;;;;;;5.75;0.93;;;;;;;;;;5116944;27;20062;-52
2024/04/07 01:00:36;;;;;;;3.05;0.90;;;;;;;;;;5110968;28;20600;-51
2024/04/07 01:03:02;;;;;;;2.17;0.73;;;;;;;;;;5119020;27;20081;-55
2024/04/07 01:05:27;;;;;;;2.95;0.95;;;;;;;;;;5114001;28;20067;-49
2024/04/07 01:07:54;;;;;;;2.35;0.70;;;;;;;;;;5113580;28;20109;-54
2024/04/07 01:10:20;;;;;;;3.08;1.25;;;;;;;;;;5113506;28;20042;-50
2024/04/07 01:12:54;;;;;;;2.75;0.80;;;;;;;;;;5113698;28;20031;-52
2024/04/07 01:15:19;;;;;;;2.97;0.80;;;;;;;;;;5148432;27;20039;-53
2024/04/07 01:17:45;;;;;;;2.70;0.93;;;;;;;;;;5113328;28;20515;-57
2024/04/07 01:20:12;;;;;;;3.72;1.00;;;;;;;;;;5113654;27;20031;-60
2024/04/07 01:22:38;;;;;;;3.78;0.90;;;;;;;;;;5113832;28;20036;-58
2024/04/07 01:25:04;;;;;;;2.95;0.90;;;;;;;;;;5112830;28;20043;-59
2024/04/07 01:27:29;;;;;;;1.80;0.60;;;;;;;;;;5113647;28;20036;-59
2024/04/07 01:29:55;;;;;;;2.47;0.90;;;;;;;;;;5116475;27;20054;-55
2024/04/07 01:32:21;;;;;;;2.22;1.00;;;;;;;;;;5113100;28;20027;-61
2024/04/07 01:34:46;;;;;;;2.28;0.80;;;;;;;;;;5113154;28;20034;-58
2024/04/07 01:37:11;;;;;;;3.17;0.98;;;;;;;;;;5111904;28;20046;-58
2024/04/07 01:39:37;;;;;;;4.38;0.98;;;;;;;;;;5113721;28;20027;-51
2024/04/07 01:42:02;;;;;;;2.28;0.70;;;;;;;;;;5112614;28;20034;-50
2024/04/07 01:44:28;;;;;;;1.83;0.70;;;;;;;;;;5113269;28;20036;-51
2024/04/07 01:46:53;;;;;;;3.83;0.90;;;;;;;;;;5113042;28;20481;-50
2024/04/07 01:49:18;;;;;;;1.77;0.70;;;;;;;;;;5112707;28;20549;-49
2024/04/07 01:51:44;;;;;;;3.08;1.23;;;;;;;;;;5113222;28;20035;-48
2024/04/07 01:54:09;;;;;;;2.78;0.80;;;;;;;;;;5112932;28;20081;-49
2024/04/07 01:56:35;;;;;;;3.50;1.10;;;;;;;;;;5112661;28;20539;-51
2024/04/07 01:59:00;;;;;;;1.73;0.70;;;;;;;;;;5124139;27;20042;-50
2024/04/07 02:01:25;;;;;;;2.28;0.80;;;;;;;;;;5113109;27;20034;-50
2024/04/07 02:03:51;;;;;;;3.35;0.93;;;;;;;;;;5112685;28;20497;-49
2024/04/07 02:06:16;;;;;;;4.22;0.98;;;;;;;;;;5112667;28;20510;-59
2024/04/07 02:08:41;;;;;;;3.67;1.10;;;;;;;;;;5112669;28;20084;-58
2024/04/07 02:11:07;;;;;;;4.57;1.25;;;;;;;;;;5112542;27;20089;-57
2024/04/07 02:13:32;;;;;;;3.78;0.98;;;;;;;;;;5106355;28;20132;-59
2024/04/07 02:16:00;;;;;;;2.15;1.00;;;;;;;;;;5112617;28;20399;-60
2024/04/07 02:18:26;;;;;;;2.45;0.88;;;;;;;;;;5112685;28;20035;-56
2024/04/07 02:20:52;;;;;;;2.97;0.95;;;;;;;;;;5111976;28;20043;-61
2024/04/07 02:23:17;;;;;;;2.47;0.88;;;;;;;;;;5112563;28;20463;-61
2024/04/07 02:25:43;;;;;;;3.67;0.90;;;;;;;;;;5112538;28;20030;-58
2024/04/07 02:28:08;;;;;;;2.60;0.65;;;;;;;;;;5110488;28;20047;-58
2024/04/07 02:30:36;;;;;;;4.90;1.02;;;;;;;;;;5112231;28;20112;-61
2024/04/07 02:33:04;;;;;;;2.45;1.40;;;;;;;;;;5112437;27;20096;-51
2024/04/07 02:35:32;;;;;;;2.85;1.02;;;;;;;;;;5112079;27;20051;-52
2024/04/07 02:37:57;;;;;;;3.22;0.85;;;;;;;;;;5111889;28;20031;-52
2024/04/07 02:40:23;;;;;;;2.17;0.88;;;;;;;;;;5111456;28;20527;-49
2024/04/07 02:42:52;;;;;;;2.45;0.95;;;;;;;;;;5112026;28;20494;-48
2024/04/07 02:48:04;;;;;;;3.15;0.93;;;;;;;;;;5111250;28;20076;-51
2024/04/07 02:50:30;;;;;;;2.65;0.90;;;;;;;;;;5112129;28;20608;-53
2024/04/07 02:52:55;;;;;;;4.13;0.88;;;;;;;;;;5118191;27;20035;-49
2024/04/07 02:55:21;;;;;;;4.50;1.00;;;;;;;;;;5111205;27;20028;-51
2024/04/07 02:57:46;;;;;;;3.78;0.90;;;;;;;;;;5112576;27;20035;-48
2024/04/07 03:00:15;;;;;;;2.78;1.05;;;;;;;;;;5115192;27;20065;-49
2024/04/07 03:02:41;;;;;;;1.92;0.65;;;;;;;;;;5112213;28;20596;-48
2024/04/07 03:05:07;;;;;;;2.28;0.73;;;;;;;;;;5111456;27;20073;-51
2024/04/07 03:07:33;;;;;;;2.67;0.98;;;;;;;;;;5111027;28;20039;-50
2024/04/07 03:09:58;;;;;;;2.85;0.90;;;;;;;;;;5111301;28;20042;-47
2024/04/07 03:12:23;;;;;;;2.08;0.90;;;;;;;;;;5111395;28;20043;-51
2024/04/07 03:14:52;;;;;;;3.80;0.90;;;;;;;;;;5111363;28;20039;-49
2024/04/07 03:17:18;;;;;;;3.42;0.82;;;;;;;;;;5109985;28;20055;-48
2024/04/07 03:19:43;;;;;;;2.47;0.80;;;;;;;;;;5111462;28;20770;-49
2024/04/07 03:22:08;;;;;;;3.40;1.05;;;;;;;;;;5111704;28;20089;-52
2024/04/07 03:24:34;;;;;;;3.10;0.90;;;;;;;;;;5110871;28;20378;-50
2024/04/07 03:26:59;;;;;;;3.67;1.10;;;;;;;;;;5111115;28;20368;-51
2024/04/07 03:29:24;;;;;;;3.83;1.33;;;;;;;;;;5111226;28;20511;-53
2024/04/07 03:31:50;;;;;;;2.25;0.95;;;;;;;;;;5110662;28;20451;-49
2024/04/07 03:34:15;;;;;;;4.13;1.00;;;;;;;;;;5111086;28;20123;-48
2024/04/07 03:36:40;;;;;;;3.60;1.20;;;;;;;;;;5111152;28;20036;-51
2024/04/07 03:39:06;;;;;;;4.45;1.15;;;;;;;;;;5110727;28;20020;-50
2024/04/07 03:41:32;;;;;;;2.30;0.70;;;;;;;;;;5110598;28;20039;-50
2024/04/07 03:43:57;;;;;;;2.25;0.80;;;;;;;;;;5110683;28;20043;-48
2024/04/07 03:46:22;;;;;;;1.90;0.90;;;;;;;;;;5111141;28;20038;-51
2024/04/07 03:48:48;;;;;;;1.95;0.80;;;;;;;;;;5110410;28;20143;-49
2024/04/07 03:51:13;;;;;;;2.28;0.90;;;;;;;;;;5111076;28;20122;-49
2024/04/07 03:53:38;;;;;;;3.38;1.08;;;;;;;;;;5110841;28;20059;-49
2024/04/07 03:56:04;;;;;;;2.63;0.93;;;;;;;;;;5112453;27;20039;-51
2024/04/07 03:58:30;;;;;;;2.95;1.15;;;;;;;;;;5111856;28;20118;-48
2024/04/07 04:01:00;;;;;;;2.38;0.90;;;;;;;;;;5110584;28;20056;-50
2024/04/07 04:03:25;;;;;;;2.58;1.30;;;;;;;;;;5110143;28;20031;-50
2024/04/07 04:05:54;;;;;;;2.63;0.80;;;;;;;;;;5110317;28;20045;-50
2024/04/07 04:08:19;;;;;;;3.03;0.85;;;;;;;;;;5110597;28;20032;-49
2024/04/07 04:10:45;;;;;;;3.15;1.10;;;;;;;;;;5110473;28;20027;-54
2024/04/07 04:13:10;;;;;;;4.72;1.08;;;;;;;;;;5110301;28;20122;-49
2024/04/07 04:15:35;;;;;;;2.80;1.02;;;;;;;;;;5110620;28;20103;-53
2024/04/07 04:18:02;;;;;;;4.28;1.10;;;;;;;;;;5110651;28;20114;-52
2024/04/07 04:20:27;;;;;;;3.05;0.90;;;;;;;;;;5109772;28;20511;-52
2024/04/07 04:22:53;;;;;;;3.25;1.10;;;;;;;;;;5110253;28;20114;-50
2024/04/07 04:25:18;;;;;;;2.80;0.93;;;;;;;;;;5110558;28;20126;-49
2024/04/07 04:27:43;;;;;;;3.58;1.17;;;;;;;;;;5109606;28;20119;-49
2024/04/07 04:30:10;;;;;;;3.63;1.30;;;;;;;;;;5110286;28;20129;-51
2024/04/07 04:32:35;;;;;;;2.47;0.80;;;;;;;;;;5110446;28;20088;-49
2024/04/07 04:35:01;;;;;;;3.50;1.10;;;;;;;;;;5109745;28;20114;-51
2024/04/07 04:37:26;;;;;;;2.55;0.90;;;;;;;;;;5109955;28;20028;-48
2024/04/07 04:39:52;;;;;;;4.40;1.00;;;;;;;;;;5110470;28;20050;-51
2024/04/07 04:42:17;;;;;;;3.53;1.30;;;;;;;;;;5109827;28;20040;-48
2024/04/07 04:44:42;;;;;;;3.45;1.20;;;;;;;;;;5110006;28;20053;-50
2024/04/07 04:47:08;;;;;;;4.50;1.30;;;;;;;;;;5109944;28;20039;-51
2024/04/07 04:49:33;;;;;;;2.58;0.98;;;;;;;;;;5110284;28;20048;-50
2024/04/07 04:51:58;;;;;;;3.35;1.00;;;;;;;;;;5109749;28;21327;-50
2024/04/07 04:54:23;;;;;;;4.70;1.10;;;;;;;;;;5110234;28;20070;-52
2024/04/07 04:56:49;;;;;;;3.13;0.95;;;;;;;;;;5107714;28;20063;-51
2024/04/07 04:59:14;;;;;;;4.53;0.90;;;;;;;;;;5112437;28;20036;-48
2024/04/07 05:01:39;;;;;;;2.92;1.00;;;;;;;;;;5109830;28;20070;-50
2024/04/07 05:04:05;;;;;;;3.75;1.33;;;;;;;;;;5110046;28;20040;-50
2024/04/07 05:06:30;;;;;;;3.50;1.23;;;;;;;;;;5109727;28;20462;-48
2024/04/07 05:08:56;;;;;;;2.00;0.98;;;;;;;;;;5109803;28;20039;-49
2024/04/07 05:11:21;;;;;;;3.75;1.15;;;;;;;;;;5109987;28;20067;-51
2024/04/07 05:13:46;;;;;;;2.90;1.10;;;;;;;;;;5113706;28;20078;-51
2024/04/07 05:16:13;;;;;;;4.85;1.42;;;;;;;;;;5113208;28;20044;-50
2024/04/07 05:18:39;;;;;;;3.05;1.17;;;;;;;;;;5113803;28;20077;-51
2024/04/07 05:21:08;;;;;;;2.28;0.80;;;;;;;;;;5113503;28;20670;-48
2024/04/07 05:23:39;;;;;;;5.35;1.33;;;;;;;;;;5113274;28;20047;-52
2024/04/07 05:26:15;;;;;;;7.10;1.27;;;;;;;;;;5112384;28;20035;-49
2024/04/07 05:28:41;;;;;;;3.85;1.27;;;;;;;;;;5113278;27;20035;-51
2024/04/07 05:31:13;;;;;;;5.18;1.38;;;;;;;;;;5112819;28;20084;-48
2024/04/07 05:33:45;;;;;;;3.35;1.00;;;;;;;;;;5113631;28;20118;-50
2024/04/07 05:36:11;;;;;;;3.03;0.90;;;;;;;;;;5123355;27;20118;-51
2024/04/07 05:38:37;;;;;;;4.50;1.10;;;;;;;;;;5113151;28;20181;-50
2024/04/07 05:41:04;;;;;;;4.32;0.98;;;;;;;;;;5113242;28;20035;-48
2024/04/07 05:43:29;;;;;;;4.70;1.20;;;;;;;;;;5113379;28;20032;-47
2024/04/07 05:45:56;;;;;;;5.22;1.23;;;;;;;;;;5113007;28;20391;-52
2024/04/07 05:48:22;;;;;;;3.35;1.25;;;;;;;;;;5112660;28;20036;-53
2024/04/07 05:50:48;;;;;;;2.47;0.82;;;;;;;;;;5112160;28;20127;-52
2024/04/07 05:53:13;;;;;;;5.65;1.20;;;;;;;;;;5112895;28;20069;-48
2024/04/07 05:55:38;;;;;;;5.43;1.17;;;;;;;;;;5112832;28;20035;-51
2024/04/07 05:58:04;;;;;;;4.75;1.13;;;;;;;;;;5112808;27;20034;-53
2024/04/07 06:00:34;;;;;;;3.35;1.30;;;;;;;;;;5113085;28;20043;-48
2024/04/07 06:03:01;;;;;;;4.45;1.40;;;;;;;;;;5109328;28;20122;-52
2024/04/07 06:05:26;;;;;;;3.67;1.13;;;;;;;;;;5113002;28;20039;-51
2024/04/07 06:07:52;;;;;;;4.22;1.30;;;;;;;;;;5112647;27;20062;-51
2024/04/07 06:10:17;;;;;;;5.35;1.10;;;;;;;;;;5112445;28;20054;-60
2024/04/07 06:12:43;;;;;;;3.13;1.20;;;;;;;;;;5110364;28;20046;-59
2024/04/07 06:15:09;;;;;;;6.15;1.60;;;;;;;;;;5112791;28;20046;-57
2024/04/07 06:17:34;;;;;;;6.25;1.45;;;;;;;;;;5111628;28;20214;-57
2024/04/07 06:20:00;;;;;;;4.15;1.33;;;;;;;;;;5112198;28;20072;-59
2024/04/07 06:22:26;;;;;;;3.55;1.20;;;;;;;;;;5111886;28;20054;-60
2024/04/07 06:24:51;;;;;;;5.28;1.45;;;;;;;;;;5112602;28;20036;-57
2024/04/07 06:27:17;;;;;;;4.30;1.30;;;;;;;;;;5112003;28;20123;-51
2024/04/07 06:29:42;;;;;;;3.75;1.13;;;;;;;;;;5112080;28;20458;-51
2024/04/07 06:32:08;;;;;;;3.47;1.15;;;;;;;;;;5112305;28;20027;-53
2024/04/07 06:34:33;;;;;;;3.50;1.02;;;;;;;;;;5111984;28;20040;-50
2024/04/07 06:36:58;;;;;;;4.13;1.00;;;;;;;;;;5111898;28;20518;-50
2024/04/07 06:39:24;;;;;;;4.18;1.02;;;;;;;;;;5112098;28;20042;-53
2024/04/07 06:41:49;;;;;;;6.10;1.35;;;;;;;;;;5111786;28;20046;-52
2024/04/07 06:44:14;;;;;;;4.30;1.30;;;;;;;;;;5111616;27;20376;-50
2024/04/07 06:46:40;;;;;;;5.07;1.63;;;;;;;;;;5111999;28;20042;-53
2024/04/07 06:49:05;;;;;;;4.72;1.13;;;;;;;;;;5111591;28;20127;-54
2024/04/07 06:51:31;;;;;;;3.63;1.20;;;;;;;;;;5111747;28;20023;-49
2024/04/07 06:54:00;;;;;;;4.18;0.93;;;;;;;;;;5112066;28;20027;-53
2024/04/07 06:56:25;;;;;;;4.18;1.30;;;;;;;;;;5111955;28;20123;-49
2024/04/07 06:58:50;;;;;;;4.88;1.52;;;;;;;;;;5119026;27;20517;-50
2024/04/07 07:01:16;;;;;;;4.72;1.33;;;;;;;;;;5111861;28;20043;-60
2024/04/07 07:03:42;;;;;;;3.80;1.17;;;;;;;;;;5111711;28;20046;-55
2024/04/07 07:06:09;;;;;;;7.75;1.70;;;;;;;;;;5111257;28;20023;-59
2024/04/07 07:08:34;;;;;;;5.20;1.20;;;;;;;;;;5111563;28;20043;-61
2024/04/07 07:10:59;;;;;;;2.97;1.00;;;;;;;;;;5111754;28;20554;-59
2024/04/07 07:13:29;;;;;;;4.00;1.13;;;;;;;;;;5111286;28;20176;-60
2024/04/07 07:15:55;;;;;;;3.47;1.23;;;;;;;;;;5110077;28;20035;-60
2024/04/07 07:18:21;;;;;;;5.28;1.58;;;;;;;;;;5111282;28;20031;-53
2024/04/07 07:20:47;;;;;;;4.90;1.40;;;;;;;;;;5111335;28;20106;-59
2024/04/07 07:23:13;;;;;;;3.38;1.00;;;;;;;;;;5110801;28;20406;-58
2024/04/07 07:25:42;;;;;;;4.07;1.20;;;;;;;;;;5111405;28;20035;-60
2024/04/07 07:28:07;;;;;;;4.47;1.30;;;;;;;;;;5109499;28;20088;-59
2024/04/07 07:30:34;;;;;;;5.90;1.50;;;;;;;;;;5110689;28;20373;-60
2024/04/07 07:33:00;;;;;;;4.10;1.35;;;;;;;;;;5111255;28;20045;-49
2024/04/07 07:35:25;;;;;;;3.95;1.20;;;;;;;;;;5110360;28;20102;-49
2024/04/07 07:37:50;;;;;;;3.80;1.10;;;;;;;;;;5110517;28;20299;-51
2024/04/07 07:40:16;;;;;;;8.95;1.45;;;;;;;;;;5110681;28;20107;-52
2024/04/07 07:42:41;;;;;;;4.75;1.15;;;;;;;;;;5108472;28;20059;-51
2024/04/07 07:45:07;;;;;;;5.03;1.23;;;;;;;;;;5123320;27;20386;-50
2024/04/07 07:47:32;;;;;;;7.28;2.15;;;;;;;;;;5112265;28;20041;-50
2024/04/07 07:49:57;;;;;;;5.40;1.38;;;;;;;;;;5114661;27;20179;-49
2024/04/07 07:52:23;;;;;;;6.38;1.30;;;;;;;;;;5116951;27;20039;-51
2024/04/07 07:54:49;;;;;;;4.78;1.30;;;;;;;;;;5113102;27;20039;-51
2024/04/07 07:57:15;;;;;;;4.38;1.15;;;;;;;;;;5120017;27;20496;-53
2024/04/07 07:59:40;;;;;;;4.63;1.20;;;;;;;;;;5112419;27;20068;-52
2024/04/07 08:02:06;;;;;;;5.85;1.50;;;;;;;;;;5110186;28;20071;-51
2024/04/07 08:04:31;;;;;;;3.33;1.30;;;;;;;;;;5109212;28;20042;-49
2024/04/07 08:06:56;;;;;;;3.13;1.25;;;;;;;;;;5108846;28;20114;-48
2024/04/07 08:09:23;;;;;;;6.68;1.30;;;;;;;;;;5110078;28;20040;-53
2024/04/07 08:11:49;;;;;;;5.68;1.23;;;;;;;;;;5110674;28;20053;-54
2024/04/07 08:14:15;;;;;;;3.95;1.17;;;;;;;;;;5110385;28;20043;-52
2024/04/07 08:16:41;;;;;;;4.90;1.13;;;;;;;;;;5110586;28;20053;-51
2024/04/07 08:19:08;;;;;;;4.13;1.13;;;;;;;;;;5110235;28;20028;-48
2024/04/07 08:21:33;;;;;;;2.72;1.10;;;;;;;;;;5110537;28;20027;-51
2024/04/07 08:23:59;;;;;;;3.38;1.33;;;;;;;;;;5110468;28;20520;-52
2024/04/07 08:26:24;;;;;;;4.78;1.38;;;;;;;;;;5109981;28;20031;-49
2024/04/07 08:28:49;;;;;;;5.88;1.40;;;;;;;;;;5110427;28;20063;-49
2024/04/07 08:31:15;;;;;;;5.07;1.50;;;;;;;;;;5110311;28;20036;-54
2024/04/07 08:33:40;;;;;;;4.18;1.27;;;;;;;;;;5109967;28;20019;-49
2024/04/07 08:36:05;;;;;;;5.03;1.33;;;;;;;;;;5110323;28;20089;-48
2024/04/07 08:38:31;;;;;;;3.92;1.17;;;;;;;;;;5110132;28;20043;-50
2024/04/07 08:40:56;;;;;;;3.97;1.20;;;;;;;;;;5109935;28;20046;-60
2024/04/07 08:43:23;;;;;;;4.43;1.27;;;;;;;;;;5110090;28;20118;-58
2024/04/07 08:45:49;;;;;;;4.30;1.40;;;;;;;;;;5109386;28;20039;-58
2024/04/07 08:48:17;;;;;;;3.97;1.10;;;;;;;;;;5113772;28;20066;-60
2024/04/07 08:50:44;;;;;;;5.40;1.65;;;;;;;;;;5113813;28;20032;-58
2024/04/07 08:53:10;;;;;;;3.95;1.35;;;;;;;;;;5113045;28;20039;-52
2024/04/07 08:55:36;;;;;;;3.28;1.20;;;;;;;;;;5129914;27;20489;-50
2024/04/07 08:58:03;;;;;;;4.47;1.10;;;;;;;;;;5132309;27;20035;-54
2024/04/07 09:00:29;;;;;;;5.35;1.27;;;;;;;;;;5118940;27;20172;-60
2024/04/07 09:02:56;;;;;;;4.03;1.10;;;;;;;;;;5112347;28;20122;-61
2024/04/07 09:05:21;;;;;;;7.90;1.45;;;;;;;;;;5112433;28;20107;-61
2024/04/07 09:07:46;;;;;;;4.40;1.30;;;;;;;;;;5114040;28;20505;-58
2024/04/07 09:10:12;;;;;;;3.63;1.30;;;;;;;;;;5113798;28;20458;-59
2024/04/07 09:12:37;;;;;;;3.03;1.30;;;;;;;;;;5113748;28;20660;-52
2024/04/07 09:15:03;;;;;;;4.05;1.27;;;;;;;;;;5113631;28;20042;-52
2024/04/07 09:17:29;;;;;;;4.78;1.20;;;;;;;;;;5112895;27;20416;-50
2024/04/07 09:19:54;;;;;;;2.95;0.98;;;;;;;;;;5113365;28;20038;-53
2024/04/07 09:22:20;;;;;;;6.30;1.33;;;;;;;;;;5113167;28;20299;-55
2024/04/07 09:24:45;;;;;;;7.10;1.33;;;;;;;;;;5112438;28;20072;-53
2024/04/07 09:27:12;;;;;;;3.65;1.00;;;;;;;;;;5113685;28;20032;-51
2024/04/07 09:29:39;;;;;;;5.07;1.20;;;;;;;;;;5111294;28;20043;-52
2024/04/07 09:32:05;;;;;;;4.63;1.40;;;;;;;;;;5113480;28;20076;-52
2024/04/07 09:34:35;;;;;;;5.85;1.67;;;;;;;;;;5113674;27;20032;-50
2024/04/07 09:37:00;;;;;;;3.28;1.23;;;;;;;;;;5112989;28;20486;-49
2024/04/07 09:39:26;;;;;;;3.72;1.20;;;;;;;;;;5113438;28;20061;-53
2024/04/07 09:41:58;;;;;;;4.60;1.35;;;;;;;;;;5113362;28;20027;-52
2024/04/07 09:44:24;;;;;;;3.92;1.50;;;;;;;;;;5112827;28;20039;-49
2024/04/07 09:46:53;;;;;;;5.00;1.42;;;;;;;;;;5113097;28;20092;-50
2024/04/07 09:49:19;;;;;;;5.30;1.45;;;;;;;;;;5128777;27;20054;-54
2024/04/07 09:51:53;;;;;;;5.00;1.27;;;;;;;;;;5111487;28;20036;-52
2024/04/07 09:54:24;;;;;;;;;;;;;;;;;;5112893;28;20531;-48
2024/04/07 09:56:50;;;;;;;4.45;1.35;;;;;;;;;;5109866;27;20455;-52
2024/04/07 09:59:16;;;;;;;3.00;0.95;;;;;;;;;;5110849;28;20111;-53
2024/04/07 10:01:41;;;;;;;4.68;1.15;;;;;;;;;;5112038;28;20065;-52
2024/04/07 10:04:07;;;;;;;5.30;1.27;;;;;;;;;;5112413;28;20039;-52
2024/04/07 10:06:33;;;;;;;3.53;1.50;;;;;;;;;;5111477;28;20035;-51
2024/04/07 10:09:01;;;;;;;4.55;1.30;;;;;;;;;;5111796;28;20039;-49
2024/04/07 10:11:26;;;;;;;4.07;1.38;;;;;;;;;;5109613;28;20066;-50
2024/04/07 10:13:51;;;;;;;2.67;1.10;;;;;;;;;;5112167;27;20058;-49
2024/04/07 10:16:17;;;;;;;5.00;1.40;;;;;;;;;;5111900;28;20035;-60
2024/04/07 10:18:46;;;;;;;4.72;1.40;;;;;;;;;;5112539;28;20038;-59
2024/04/07 10:21:12;;;;;;;4.13;1.17;;;;;;;;;;5110951;28;20456;-60
2024/04/07 10:23:39;;;;;;;3.35;1.10;;;;;;;;;;5112488;27;20099;-58
2024/04/07 10:26:06;;;;;;;5.00;1.30;;;;;;;;;;5112510;28;20406;-58
2024/04/07 10:29:07;;;;;;;4.25;1.50;;;;;;;;;;5111172;28;20023;-60
2024/04/07 10:31:38;;;;;;;3.22;1.17;;;;;;;;;;5082507;28;20105;-57
2024/04/07 10:34:03;;;;;;;4.20;1.20;;;;;;;;;;5110788;28;20111;-52
2024/04/07 10:36:33;;;;;;;3.60;1.23;;;;;;;;;;5112175;28;20089;-54
2024/04/07 10:38:59;;;;;;;3.83;1.08;;;;;;;;;;5111070;28;20039;-51
2024/04/07 10:41:26;;;;;;;5.22;1.40;;;;;;;;;;5110527;28;20039;-58
2024/04/07 10:43:52;;;;;;;2.67;0.90;;;;;;;;;;5110916;28;20087;-58
2024/04/07 10:46:19;;;;;;;3.72;1.20;;;;;;;;;;5110693;28;20428;-60
2024/04/07 10:48:45;;;;;;;4.80;1.20;;;;;;;;;;5111201;28;20513;-60
2024/04/07 10:51:12;;;;;;;4.53;1.20;;;;;;;;;;5112086;28;20043;-58
2024/04/07 10:53:39;;;;;;;4.03;1.15;;;;;;;;;;5111838;28;20039;-49
2024/04/07 10:56:04;;;;;;;3.42;1.20;;;;;;;;;;5111408;28;20119;-55
2024/04/07 10:58:29;;;;;;;2.50;1.10;;;;;;;;;;5118567;27;20110;-50
2024/04/07 11:00:55;;;;;;;3.13;1.10;;;;;;;;;;5111961;27;20459;-61
2024/04/07 11:03:21;;;;;;;4.95;1.30;;;;;;;;;;5126566;27;20104;-58
2024/04/07 11:05:47;;;;;;;3.22;1.00;;;;;;;;;;5109505;28;20043;-57
2024/04/07 11:08:12;;;;;;;4.75;1.27;;;;;;;;;;5111309;28;20036;-59
2024/04/07 11:10:38;;;;;;;5.07;1.30;;;;;;;;;;5123274;27;20428;-59
2024/04/07 11:13:06;;;;;;;4.50;1.25;;;;;;;;;;5110249;28;20100;-52
2024/04/07 11:15:31;;;;;;;4.22;1.23;;;;;;;;;;5110919;28;20048;-51
2024/04/07 11:18:00;;;;;;;3.88;1.33;;;;;;;;;;5108410;28;20448;-61
2024/04/07 11:20:26;;;;;;;3.20;1.17;;;;;;;;;;5110519;28;20076;-59
2024/04/07 11:22:52;;;;;;;3.58;1.17;;;;;;;;;;5142466;27;20431;-55
2024/04/07 11:25:19;;;;;;;2.85;1.10;;;;;;;;;;5110884;28;20053;-60
2024/04/07 11:27:44;;;;;;;2.80;0.90;;;;;;;;;;5110899;28;20383;-60
2024/04/07 11:30:10;;;;;;;2.83;1.02;;;;;;;;;;5111249;28;20042;-51
2024/04/07 11:32:38;;;;;;;3.42;1.10;;;;;;;;;;5111227;28;20062;-53
2024/04/07 11:35:05;;;;;;;3.03;0.90;;;;;;;;;;5110914;28;20031;-50
2024/04/07 11:37:30;;;;;;;3.45;1.00;;;;;;;;;;5109516;28;20035;-49
2024/04/07 11:39:56;;;;;;;4.32;1.23;;;;;;;;;;5109042;28;20070;-51
2024/04/07 11:42:24;;;;;;;4.25;1.30;;;;;;;;;;5109708;28;20096;-52
2024/04/07 11:44:50;;;;;;;4.35;1.10;;;;;;;;;;5110654;28;20039;-50
2024/04/07 11:47:15;;;;;;;3.53;1.20;;;;;;;;;;5110927;28;20024;-50
2024/04/07 11:49:42;;;;;;;2.50;1.00;;;;;;;;;;5110770;28;20433;-51
2024/04/07 11:52:08;;;;;;;3.05;1.02;;;;;;;;;;5108972;28;20395;-51
2024/04/07 11:54:33;;;;;;;3.78;1.02;;;;;;;;;;5110600;28;20028;-49
2024/04/07 11:56:59;;;;;;;2.22;0.80;;;;;;;;;;5110664;28;20071;-53
2024/04/07 11:59:24;;;;;;;1.77;0.75;;;;;;;;;;5123699;27;20074;-51
2024/04/07 12:01:49;;;;;;;5.63;1.17;;;;;;;;;;5110258;28;20037;-49
2024/04/07 12:04:15;;;;;;;4.03;1.08;;;;;;;;;;5110459;28;20028;-55
2024/04/07 12:06:41;;;;;;;7.60;1.23;;;;;;;;;;5110367;28;20059;-52
2024/04/07 12:09:08;;;;;;;3.92;1.00;;;;;;;;;;5110104;28;20063;-51
2024/04/07 12:11:34;;;;;;;3.78;1.08;;;;;;;;;;5110396;28;20042;-53
2024/04/07 12:13:59;;;;;;;4.82;1.15;;;;;;;;;;5110599;28;20039;-51
2024/04/07 12:16:24;;;;;;;3.75;1.17;;;;;;;;;;5110164;28;20024;-50
2024/04/07 12:18:50;;;;;;;3.63;1.33;;;;;;;;;;5110339;28;20412;-51
2024/04/07 12:21:15;;;;;;;5.43;0.93;;;;;;;;;;5110222;28;20043;-51
2024/04/07 12:23:41;;;;;;;6.10;1.25;;;;;;;;;;5110030;28;20459;-60
2024/04/07 12:26:08;;;;;;;4.95;1.33;;;;;;;;;;5110621;28;20091;-60
2024/04/07 12:28:33;;;;;;;3.42;1.15;;;;;;;;;;5109994;28;20506;-59
2024/04/07 12:30:58;;;;;;;3.53;1.08;;;;;;;;;;5110177;28;20035;-57
2024/04/07 12:33:24;;;;;;;3.88;1.20;;;;;;;;;;5110436;28;20135;-60
2024/04/07 12:35:49;;;;;;;2.85;0.90;;;;;;;;;;5110115;28;20042;-49
2024/04/07 12:38:15;;;;;;;2.75;1.00;;;;;;;;;;5110564;28;20122;-49
2024/04/07 12:40:41;;;;;;;3.42;1.05;;;;;;;;;;5126112;28;20103;-49
2024/04/07 12:43:06;;;;;;;3.70;1.20;;;;;;;;;;5110359;28;20116;-51
2024/04/07 12:45:33;;;;;;;3.22;0.95;;;;;;;;;;5109785;28;20031;-48
2024/04/07 12:47:59;;;;;;;5.22;1.23;;;;;;;;;;5108724;28;20042;-49
2024/04/07 12:50:24;;;;;;;2.83;0.93;;;;;;;;;;5110471;28;20047;-51
2024/04/07 12:52:50;;;;;;;4.47;1.10;;;;;;;;;;5110198;28;20063;-48
2024/04/07 12:55:15;;;;;;;5.05;1.27;;;;;;;;;;5109633;28;20031;-52
2024/04/07 12:57:41;;;;;;;3.55;1.10;;;;;;;;;;5109902;28;20144;-49
2024/04/07 13:00:07;;;;;;;3.15;0.82;;;;;;;;;;5117114;28;20024;-52
2024/04/07 13:02:32;;;;;;;3.47;1.00;;;;;;;;;;5108124;28;20036;-60
2024/04/07 13:04:58;;;;;;;4.00;1.20;;;;;;;;;;5110182;28;20119;-58
2024/04/07 13:07:23;;;;;;;3.10;1.02;;;;;;;;;;5110245;28;20080;-61
2024/04/07 13:09:48;;;;;;;3.88;1.25;;;;;;;;;;5110168;28;20051;-58
2024/04/07 13:12:14;;;;;;;2.58;1.00;;;;;;;;;;5107527;28;20071;-58
2024/04/07 13:14:39;;;;;;;4.70;1.35;;;;;;;;;;5110047;28;20046;-54
2024/04/07 13:17:05;;;;;;;3.60;1.00;;;;;;;;;;5110218;28;20035;-52
2024/04/07 13:19:30;;;;;;;3.40;1.02;;;;;;;;;;5109606;28;20054;-53
2024/04/07 13:21:55;;;;;;;4.68;1.30;;;;;;;;;;5108141;28;20032;-50
2024/04/07 13:24:21;;;;;;;4.28;1.30;;;;;;;;;;5110178;28;20027;-60
2024/04/07 13:26:46;;;;;;;3.72;1.10;;;;;;;;;;5109409;28;20035;-60
2024/04/07 13:29:11;;;;;;;3.00;1.08;;;;;;;;;;5109982;28;20123;-61
2024/04/07 13:31:36;;;;;;;5.75;1.10;;;;;;;;;;5109214;28;20032;-60
2024/04/07 13:34:02;;;;;;;3.47;1.02;;;;;;;;;;5103779;28;20043;-59
2024/04/07 13:36:28;;;;;;;2.58;1.00;;;;;;;;;;5112952;28;20036;-59
2024/04/07 13:38:53;;;;;;;2.30;1.00;;;;;;;;;;5113474;28;20023;-52
2024/04/07 13:41:18;;;;;;;3.17;1.00;;;;;;;;;;5113319;28;20050;-52
2024/04/07 13:43:44;;;;;;;4.30;1.20;;;;;;;;;;5112947;28;20027;-50
2024/04/07 13:46:09;;;;;;;2.95;0.90;;;;;;;;;;5113048;28;20032;-54
2024/04/07 13:48:34;;;;;;;4.70;0.93;;;;;;;;;;5112996;28;20063;-51
2024/04/07 13:51:00;;;;;;;3.28;1.10;;;;;;;;;;5112809;28;20028;-48
2024/04/07 13:53:27;;;;;;;3.92;1.20;;;;;;;;;;5113238;28;20034;-53
2024/04/07 13:55:52;;;;;;;2.85;1.00;;;;;;;;;;5113081;28;20032;-50
2024/04/07 13:58:18;;;;;;;5.13;1.00;;;;;;;;;;5117094;27;20039;-54
2024/04/07 14:00:45;;;;;;;7.13;1.63;;;;;;;;;;5112807;28;20031;-52
2024/04/07 14:03:10;;;;;;;4.82;1.10;;;;;;;;;;5112878;28;20054;-51
2024/04/07 14:05:37;;;;;;;3.08;1.08;;;;;;;;;;5112617;28;20418;-50
2024/04/07 14:08:06;;;;;;;4.15;1.20;;;;;;;;;;5105786;28;20170;-51
2024/04/07 14:10:32;;;;;;;4.95;1.20;;;;;;;;;;5111588;28;20035;-52
2024/04/07 14:12:57;;;;;;;4.15;1.10;;;;;;;;;;5112606;28;20043;-50
2024/04/07 14:15:23;;;;;;;3.50;1.10;;;;;;;;;;5112113;28;20039;-50
2024/04/07 14:17:49;;;;;;;2.50;0.82;;;;;;;;;;5112344;28;20039;-49
2024/04/07 14:20:15;;;;;;;6.28;1.35;;;;;;;;;;5112768;28;20070;-53
2024/04/07 14:22:41;;;;;;;2.58;0.82;;;;;;;;;;5112463;28;20077;-51
2024/04/07 14:25:07;;;;;;;4.28;1.25;;;;;;;;;;5112316;28;20044;-53
2024/04/07 14:27:32;;;;;;;4.88;1.45;;;;;;;;;;5112043;28;20493;-52
2024/04/07 14:29:57;;;;;;;3.47;1.50;;;;;;;;;;5112240;28;20106;-49
2024/04/07 14:32:23;;;;;;;3.90;1.45;;;;;;;;;;5112287;28;20035;-50
2024/04/07 14:34:48;;;;;;;6.55;1.45;;;;;;;;;;5112442;28;20045;-52
2024/04/07 14:37:14;;;;;;;3.05;1.20;;;;;;;;;;5112151;28;20027;-50
2024/04/07 14:39:39;;;;;;;3.83;1.20;;;;;;;;;;5112040;28;20455;-53